Time;durP1;ratioP1;P1;durP2;ratioP2;P2;SDS_P1;SDS_P2;PMS_P1;PMS_P2;Temp;Humidity;BMP_temperature;BMP_pressure;BME280_temperature;BME280_humidity;BME280_pressure;Samples;Min_cycle;Max_cycle;Signal;HPM_P1;HPM_P2
2021/08/05 00:01:45;;;;;;;11.43;7.05;;;18.70;79.50;;;;;;5095968;28;20027;-86
2021/08/05 00:04:11;;;;;;;14.27;8.75;;;18.70;79.60;;;;;;5095556;28;20024;-86
2021/08/05 00:06:36;;;;;;;10.20;6.78;;;18.70;79.60;;;;;;5096170;28;20040;-84
2021/08/05 00:09:02;;;;;;;8.02;5.30;;;18.70;79.70;;;;;;5100579;28;20085;-85
2021/08/05 00:11:28;;;;;;;8.07;4.95;;;18.70;79.80;;;;;;5105863;28;20031;-85
2021/08/05 00:13:54;;;;;;;6.90;4.43;;;18.60;80.10;;;;;;5112130;28;20050;-85
2021/08/05 00:16:20;;;;;;;6.72;4.53;;;18.60;80.30;;;;;;5114257;28;20080;-85
2021/08/05 00:18:45;;;;;;;7.15;4.68;;;18.60;80.40;;;;;;5104419;28;20047;-86
2021/08/05 00:21:11;;;;;;;7.20;5.18;;;18.60;80.70;;;;;;5095647;28;20020;-86
2021/08/05 00:23:36;;;;;;;7.72;5.45;;;18.60;80.80;;;;;;5098353;28;20097;-87
2021/08/05 00:26:02;;;;;;;6.72;5.30;;;18.60;80.80;;;;;;5095907;28;20479;-86
2021/08/05 00:28:28;;;;;;;7.82;5.57;;;18.60;80.80;;;;;;5106305;28;20499;-84
2021/08/05 00:30:54;;;;;;;7.10;5.45;;;18.60;80.70;;;;;;5095799;28;20016;-87
2021/08/05 00:33:20;;;;;;;7.30;5.05;;;18.60;80.90;;;;;;5095244;28;20028;-87
2021/08/05 00:35:46;;;;;;;8.00;5.22;;;18.60;81.00;;;;;;5094979;28;20039;-86
2021/08/05 00:38:12;;;;;;;9.70;6.93;;;18.60;81.10;;;;;;5094583;28;20019;-85
2021/08/05 00:40:37;;;;;;;8.10;6.30;;;18.50;81.20;;;;;;5093920;28;20020;-85
2021/08/05 00:43:03;;;;;;;6.88;5.13;;;18.50;81.30;;;;;;5094949;28;20020;-86
2021/08/05 00:45:28;;;;;;;7.25;5.53;;;18.50;81.60;;;;;;5094323;28;20484;-86
2021/08/05 00:47:54;;;;;;;7.53;5.63;;;18.50;81.70;;;;;;5094925;28;20373;-86
2021/08/05 00:50:20;;;;;;;7.78;5.45;;;18.50;81.90;;;;;;5095324;28;20461;-86
2021/08/05 00:52:45;;;;;;;6.72;5.20;;;18.50;82.00;;;;;;5094791;28;20115;-85
2021/08/05 00:55:11;;;;;;;6.82;4.90;;;18.40;82.20;;;;;;5095160;28;20039;-85
2021/08/05 00:57:37;;;;;;;7.22;5.13;;;18.40;82.30;;;;;;5094165;28;20016;-86
2021/08/05 01:00:04;;;;;;;7.22;5.03;;;18.40;82.50;;;;;;5093778;28;20069;-85
2021/08/05 01:02:36;;;;;;;7.18;5.45;;;18.30;82.60;;;;;;5095624;28;20055;-85
2021/08/05 01:05:02;;;;;;;5.97;4.25;;;18.30;83.10;;;;;;5097426;28;20020;-85
2021/08/05 01:07:42;;;;;;;6.32;5.00;;;18.30;82.50;;;;;;5106470;28;20065;-85
2021/08/05 01:10:20;;;;;;;6.97;4.63;;;18.20;82.50;;;;;;5107102;28;20020;-85
2021/08/05 01:12:55;;;;;;;6.95;5.35;;;18.20;82.50;;;;;;5109757;28;20013;-85
2021/08/05 01:15:24;;;;;;;9.27;6.65;;;18.20;82.60;;;;;;5116569;28;20076;-85
2021/08/05 01:18:04;;;;;;;11.05;6.40;;;18.10;82.70;;;;;;5102860;28;20055;-86
2021/08/05 01:20:31;;;;;;;8.32;6.05;;;18.10;83.00;;;;;;5095145;28;20067;-86
2021/08/05 01:23:35;;;;;;;9.02;6.63;;;18.10;83.20;;;;;;5096410;28;20020;-85
2021/08/05 01:26:16;;;;;;;11.15;8.40;;;18.10;83.40;;;;;;5104017;28;20028;-85
2021/08/05 01:28:44;;;;;;;9.65;7.28;;;18.00;83.50;;;;;;5112671;28;20035;-87
2021/08/05 01:31:10;;;;;;;9.43;7.60;;;18.00;83.60;;;;;;5107870;28;20472;-86
2021/08/05 01:33:37;;;;;;;10.55;8.13;;;17.90;83.80;;;;;;5096448;28;20035;-86
2021/08/05 01:36:04;;;;;;;9.63;7.78;;;18.00;83.90;;;;;;5093621;28;20032;-87
2021/08/05 01:38:33;;;;;;;9.75;8.02;;;17.90;84.00;;;;;;5092694;28;20031;-86
2021/08/05 01:40:59;;;;;;;10.55;8.25;;;17.90;84.20;;;;;;5092557;28;20084;-87
2021/08/05 01:43:26;;;;;;;10.73;8.00;;;17.80;84.30;;;;;;5092653;28;20129;-86
2021/08/05 01:45:53;;;;;;;9.35;8.07;;;17.80;84.40;;;;;;5093717;28;20456;-85
2021/08/05 01:48:19;;;;;;;11.52;8.85;;;17.80;84.60;;;;;;5092647;28;20031;-85
2021/08/05 01:50:46;;;;;;;12.00;8.75;;;17.80;84.70;;;;;;5092378;28;20016;-86
2021/08/05 01:53:15;;;;;;;11.77;8.70;;;17.70;84.80;;;;;;5092185;28;20024;-85
2021/08/05 01:55:42;;;;;;;11.00;9.80;;;17.70;85.00;;;;;;5092898;28;20043;-86
2021/08/05 01:58:07;;;;;;;11.07;9.10;;;17.70;85.10;;;;;;5092789;28;20104;-85
2021/08/05 02:00:33;;;;;;;11.85;8.80;;;17.60;85.10;;;;;;5092430;28;20020;-85
2021/08/05 02:02:59;;;;;;;11.85;9.88;;;17.70;85.40;;;;;;5093354;28;20024;-86
2021/08/05 02:05:36;;;;;;;13.18;9.73;;;17.60;85.60;;;;;;5093978;28;20414;-86
2021/08/05 02:08:05;;;;;;;13.80;10.25;;;17.60;85.70;;;;;;5093205;28;20450;-85
2021/08/05 02:10:34;;;;;;;12.75;10.52;;;17.60;85.40;;;;;;5093209;28;20093;-85
2021/08/05 02:13:24;;;;;;;12.40;9.93;;;17.60;86.20;;;;;;5092985;28;20339;-85
2021/08/05 02:15:54;;;;;;;13.30;9.75;;;17.60;85.70;;;;;;5093034;28;20059;-85
2021/08/05 02:18:22;;;;;;;14.63;10.85;;;17.60;85.70;;;;;;5092733;28;20032;-85
2021/08/05 02:20:48;;;;;;;12.40;10.25;;;17.50;85.60;;;;;;5092421;28;20177;-86
2021/08/05 02:23:14;;;;;;;12.18;9.57;;;17.60;85.80;;;;;;5092115;28;20687;-86
2021/08/05 02:25:41;;;;;;;11.55;10.30;;;17.50;85.80;;;;;;5092157;28;20480;-86
2021/08/05 02:28:07;;;;;;;14.50;11.50;;;17.50;86.10;;;;;;5091997;28;20026;-84
2021/08/05 02:30:35;;;;;;;13.80;11.27;;;17.50;86.20;;;;;;5092459;28;20019;-85
2021/08/05 02:33:01;;;;;;;13.05;11.50;;;17.40;86.20;;;;;;5091802;28;20078;-86
2021/08/05 02:35:27;;;;;;;15.05;12.52;;;17.50;86.40;;;;;;5092399;28;20058;-85
2021/08/05 02:37:54;;;;;;;15.45;13.75;;;17.40;86.50;;;;;;5092678;28;20487;-85
2021/08/05 02:40:20;;;;;;;15.20;11.93;;;17.40;86.50;;;;;;5092936;28;20055;-85
2021/08/05 02:42:49;;;;;;;13.48;12.00;;;17.40;86.70;;;;;;5092984;28;20077;-86
2021/08/05 02:45:16;;;;;;;12.40;11.07;;;17.40;86.70;;;;;;5097628;28;20035;-85
2021/08/05 02:47:41;;;;;;;14.48;11.18;;;17.30;86.60;;;;;;5096950;28;20031;-86
2021/08/05 02:50:08;;;;;;;14.63;11.52;;;17.30;86.60;;;;;;5098116;28;20020;-86
2021/08/05 02:52:37;;;;;;;14.00;11.95;;;17.40;86.70;;;;;;5103640;28;20028;-86
2021/08/05 02:55:04;;;;;;;13.50;12.10;;;17.30;86.70;;;;;;5097373;28;20065;-86
2021/08/05 02:57:30;;;;;;;14.82;11.07;;;17.30;86.70;;;;;;5098423;28;20034;-84
2021/08/05 02:59:57;;;;;;;12.75;11.23;;;17.30;86.80;;;;;;5097436;28;20024;-85
2021/08/05 03:02:22;;;;;;;13.10;10.60;;;17.40;86.80;;;;;;5097084;28;20024;-84
2021/08/05 03:04:49;;;;;;;12.65;10.70;;;17.40;86.50;;;;;;5097292;28;20043;-85
2021/08/05 03:07:14;;;;;;;11.30;9.57;;;17.40;86.50;;;;;;5096746;28;20089;-85
2021/08/05 03:09:40;;;;;;;11.30;10.10;;;17.40;86.40;;;;;;5097436;28;20464;-86
2021/08/05 03:12:06;;;;;;;11.45;10.10;;;17.40;86.20;;;;;;5101101;28;20023;-86
2021/08/05 03:14:32;;;;;;;12.80;9.55;;;17.40;86.30;;;;;;5105733;28;20020;-87
2021/08/05 03:16:59;;;;;;;10.52;9.15;;;17.40;86.10;;;;;;5116211;28;20125;-87
2021/08/05 03:19:24;;;;;;;9.77;8.63;;;17.40;85.90;;;;;;5118617;28;20085;-86
2021/08/05 03:21:50;;;;;;;10.85;8.68;;;17.40;85.80;;;;;;5101648;28;20456;-86
2021/08/05 03:24:15;;;;;;;9.77;8.77;;;17.40;85.70;;;;;;5097649;28;20020;-86
2021/08/05 03:26:41;;;;;;;11.95;9.35;;;17.40;85.70;;;;;;5096699;28;20114;-86
2021/08/05 03:29:07;;;;;;;10.50;8.02;;;17.40;85.70;;;;;;5095199;28;20016;-86
2021/08/05 03:31:32;;;;;;;10.65;8.60;;;17.40;85.50;;;;;;5095091;28;20023;-85
2021/08/05 03:33:58;;;;;;;10.07;7.88;;;17.40;85.60;;;;;;5094916;28;20118;-86
2021/08/05 03:36:24;;;;;;;9.73;7.85;;;17.40;85.60;;;;;;5095399;28;20357;-85
2021/08/05 03:38:50;;;;;;;9.65;8.10;;;17.40;85.70;;;;;;5095450;28;20035;-86
2021/08/05 03:41:15;;;;;;;9.85;7.60;;;17.40;85.80;;;;;;5095139;28;20032;-85
2021/08/05 03:43:41;;;;;;;8.70;7.50;;;17.40;85.90;;;;;;5097486;28;20027;-86
2021/08/05 03:46:06;;;;;;;10.45;8.27;;;17.30;86.00;;;;;;5098969;28;20400;-85
2021/08/05 03:48:32;;;;;;;10.77;7.63;;;17.30;86.10;;;;;;5103400;28;20016;-85
2021/08/05 03:50:58;;;;;;;8.10;6.75;;;17.30;86.20;;;;;;5097409;28;20084;-86
2021/08/05 03:53:23;;;;;;;10.07;6.90;;;17.30;86.20;;;;;;5095168;28;20038;-86
2021/08/05 03:55:51;;;;;;;9.05;7.43;;;17.30;86.20;;;;;;5094734;28;20385;-86
2021/08/05 03:58:17;;;;;;;9.57;7.15;;;17.30;86.40;;;;;;5094717;28;20024;-86
2021/08/05 04:00:42;;;;;;;9.18;7.35;;;17.30;86.40;;;;;;5094850;28;20455;-85
2021/08/05 04:03:08;;;;;;;9.77;6.95;;;17.30;86.40;;;;;;5095023;28;20028;-86
2021/08/05 04:05:34;;;;;;;8.60;7.47;;;17.30;86.40;;;;;;5096958;28;20062;-86
2021/08/05 04:08:00;;;;;;;10.27;7.82;;;17.30;86.60;;;;;;5098056;28;20028;-86
2021/08/05 04:10:25;;;;;;;9.10;7.93;;;17.30;86.50;;;;;;5097652;28;20020;-86
2021/08/05 04:12:51;;;;;;;9.82;7.88;;;17.30;87.10;;;;;;5096730;28;20024;-86
2021/08/05 04:15:17;;;;;;;10.90;7.70;;;17.20;86.60;;;;;;5094643;28;20030;-86
2021/08/05 04:17:42;;;;;;;8.93;7.55;;;17.20;86.70;;;;;;5095643;28;20028;-85
2021/08/05 04:20:09;;;;;;;9.27;7.55;;;17.20;86.80;;;;;;5095033;28;20016;-86
2021/08/05 04:22:38;;;;;;;10.25;7.93;;;17.20;86.80;;;;;;5094925;28;20472;-87
2021/08/05 04:25:08;;;;;;;11.77;8.15;;;17.20;86.90;;;;;;5094896;28;20024;-86
2021/08/05 04:27:39;;;;;;;10.10;8.15;;;17.30;86.90;;;;;;5096000;28;20345;-84
2021/08/05 04:30:11;;;;;;;10.90;8.38;;;17.30;87.00;;;;;;5104853;28;20032;-84
2021/08/05 04:32:38;;;;;;;9.40;7.70;;;17.20;86.70;;;;;;5094579;28;20023;-86
2021/08/05 04:35:05;;;;;;;9.70;7.88;;;17.30;86.70;;;;;;5093813;28;20030;-86
2021/08/05 04:37:31;;;;;;;9.82;7.90;;;17.30;86.80;;;;;;5094617;28;20146;-85
2021/08/05 04:39:56;;;;;;;10.20;8.65;;;17.30;86.80;;;;;;5093615;28;20078;-85
2021/08/05 04:42:22;;;;;;;10.00;7.53;;;17.30;86.80;;;;;;5093904;28;20444;-87
2021/08/05 04:44:47;;;;;;;9.48;7.97;;;17.30;86.90;;;;;;5094170;28;20030;-86
2021/08/05 04:47:13;;;;;;;11.70;8.48;;;17.30;86.90;;;;;;5096215;28;20028;-85
2021/08/05 04:49:39;;;;;;;10.32;8.48;;;17.30;86.80;;;;;;5095764;28;20410;-84
2021/08/05 04:52:06;;;;;;;11.35;7.63;;;17.40;86.70;;;;;;5095576;28;20020;-85
2021/08/05 04:54:32;;;;;;;11.55;8.48;;;17.30;86.80;;;;;;5098706;28;20170;-86
2021/08/05 04:56:58;;;;;;;9.85;7.72;;;17.40;86.70;;;;;;5097621;28;20028;-85
2021/08/05 04:59:23;;;;;;;11.65;8.55;;;17.40;86.70;;;;;;5097583;28;20031;-85
2021/08/05 05:01:49;;;;;;;10.57;8.15;;;17.40;86.70;;;;;;5101444;28;20023;-87
2021/08/05 05:04:15;;;;;;;11.90;8.43;;;17.40;86.80;;;;;;5111149;28;20034;-84
2021/08/05 05:06:40;;;;;;;9.25;7.95;;;17.40;86.80;;;;;;5111201;28;20075;-86
2021/08/05 05:09:06;;;;;;;10.32;8.30;;;17.50;86.80;;;;;;5101009;28;20024;-85
2021/08/05 05:11:32;;;;;;;9.68;8.27;;;17.50;86.60;;;;;;5095476;28;20041;-86
2021/08/05 05:13:58;;;;;;;12.25;8.20;;;17.50;86.50;;;;;;5095648;28;20020;-86
2021/08/05 05:16:23;;;;;;;10.30;8.80;;;17.50;86.30;;;;;;5095161;28;20024;-86
2021/08/05 05:18:49;;;;;;;11.30;8.15;;;17.50;86.10;;;;;;5095660;28;20016;-86
2021/08/05 05:21:18;;;;;;;12.48;9.55;;;17.50;86.00;;;;;;5104826;28;20024;-85
2021/08/05 05:23:43;;;;;;;10.98;9.38;;;17.60;86.00;;;;;;5104624;28;20027;-86
2021/08/05 05:26:09;;;;;;;11.15;9.60;;;17.60;86.60;;;;;;5095717;28;20020;-85
2021/08/05 05:28:36;;;;;;;10.60;9.48;;;17.60;85.80;;;;;;5093683;28;20059;-85
2021/08/05 05:31:02;;;;;;;10.70;9.20;;;17.60;85.80;;;;;;5094129;28;20024;-86
2021/08/05 05:33:28;;;;;;;10.50;9.40;;;17.60;86.10;;;;;;5094848;28;20062;-85
2021/08/05 05:35:54;;;;;;;11.57;9.65;;;17.60;86.10;;;;;;5095011;28;20032;-85
2021/08/05 05:38:20;;;;;;;12.05;10.25;;;17.60;86.00;;;;;;5092651;28;20411;-86
2021/08/05 05:40:46;;;;;;;13.00;9.88;;;17.60;86.10;;;;;;5093173;28;20381;-86
2021/08/05 05:43:13;;;;;;;10.38;8.38;;;17.70;86.00;;;;;;5092216;28;20435;-86
2021/08/05 05:45:39;;;;;;;9.13;7.28;;;17.70;86.00;;;;;;5092742;28;20031;-86
2021/08/05 05:48:07;;;;;;;8.45;6.78;;;17.70;86.00;;;;;;5093471;28;20031;-86
2021/08/05 05:50:33;;;;;;;8.60;6.32;;;17.80;85.80;;;;;;5093612;28;20464;-84
2021/08/05 05:52:59;;;;;;;7.60;5.88;;;17.80;85.40;;;;;;5093164;28;20031;-85
2021/08/05 05:55:25;;;;;;;12.27;10.65;;;17.80;85.10;;;;;;5093100;28;20392;-86
2021/08/05 05:57:51;;;;;;;13.23;10.63;;;17.90;85.40;;;;;;5093569;28;20020;-85
2021/08/05 06:00:17;;;;;;;12.02;10.75;;;17.80;85.40;;;;;;5092318;28;20027;-85
2021/08/05 06:02:43;;;;;;;13.55;11.85;;;17.90;85.40;;;;;;5093238;28;20024;-85
2021/08/05 06:05:09;;;;;;;13.73;11.40;;;17.90;85.40;;;;;;5092917;28;20115;-85
2021/08/05 06:07:49;;;;;;;14.88;11.20;;;17.90;85.40;;;;;;5107305;28;20046;-84
2021/08/05 06:10:18;;;;;;;14.80;11.55;;;17.90;85.40;;;;;;5097489;28;20461;-85
2021/08/05 06:12:44;;;;;;;12.55;11.13;;;17.90;85.40;;;;;;5093692;28;20020;-85
2021/08/05 06:15:11;;;;;;;14.02;11.70;;;18.00;85.50;;;;;;5092171;28;20051;-85
2021/08/05 06:17:37;;;;;;;13.43;11.73;;;18.00;85.40;;;;;;5093950;28;20029;-84
2021/08/05 06:20:04;;;;;;;13.30;11.00;;;18.00;85.10;;;;;;5094434;28;20028;-85
2021/08/05 06:22:30;;;;;;;11.93;10.73;;;18.00;84.70;;;;;;5092990;28;20494;-84
2021/08/05 06:24:55;;;;;;;12.70;11.27;;;18.10;84.80;;;;;;5094724;28;20024;-84
2021/08/05 06:27:22;;;;;;;15.05;12.35;;;18.10;84.90;;;;;;5099299;28;20024;-84
2021/08/05 06:29:49;;;;;;;14.55;11.60;;;18.10;85.10;;;;;;5101104;28;20062;-83
2021/08/05 06:32:15;;;;;;;14.85;11.85;;;18.20;85.10;;;;;;5102526;28;20021;-84
2021/08/05 06:34:43;;;;;;;14.05;10.55;;;18.20;85.10;;;;;;5097866;28;20032;-84
2021/08/05 06:37:09;;;;;;;12.55;11.18;;;18.20;84.90;;;;;;5093796;28;20028;-84
2021/08/05 06:39:35;;;;;;;12.82;10.38;;;18.30;84.70;;;;;;5094735;28;20071;-84
2021/08/05 06:42:00;;;;;;;11.18;9.35;;;18.30;84.30;;;;;;5093168;28;20028;-84
2021/08/05 06:44:26;;;;;;;11.88;10.07;;;18.40;84.40;;;;;;5092889;28;20063;-85
2021/08/05 06:46:52;;;;;;;13.45;9.93;;;18.40;85.00;;;;;;5092652;28;20032;-84
2021/08/05 06:49:17;;;;;;;13.48;11.85;;;18.50;84.10;;;;;;5094582;28;20032;-85
2021/08/05 06:51:43;;;;;;;11.82;9.60;;;18.50;83.90;;;;;;5103944;28;20042;-84
2021/08/05 06:54:08;;;;;;;12.95;11.02;;;18.50;83.70;;;;;;5113479;28;20076;-84
2021/08/05 06:56:34;;;;;;;12.82;10.13;;;18.60;83.60;;;;;;5107645;28;20043;-84
2021/08/05 06:59:00;;;;;;;13.07;9.93;;;18.60;83.30;;;;;;5096755;28;20035;-84
2021/08/05 07:01:25;;;;;;;14.95;12.02;;;18.70;83.10;;;;;;5094257;28;20028;-84
2021/08/05 07:03:51;;;;;;;12.32;10.23;;;18.70;82.80;;;;;;5093213;28;20020;-84
2021/08/05 07:06:17;;;;;;;13.13;11.82;;;18.70;82.60;;;;;;5092693;28;20025;-84
2021/08/05 07:08:43;;;;;;;12.05;10.57;;;18.70;82.40;;;;;;5092487;28;20020;-84
2021/08/05 07:11:08;;;;;;;10.68;8.65;;;18.70;82.30;;;;;;5093309;28;20483;-85
2021/08/05 07:13:34;;;;;;;9.93;7.43;;;18.80;82.20;;;;;;5092029;28;20027;-84
2021/08/05 07:16:00;;;;;;;14.85;12.77;;;18.80;82.10;;;;;;5092000;28;20055;-84
2021/08/05 07:18:26;;;;;;;11.60;9.43;;;18.90;81.80;;;;;;5092710;28;20055;-84
2021/08/05 07:20:53;;;;;;;13.13;11.02;;;18.90;81.60;;;;;;5091907;28;20479;-83
2021/08/05 07:23:18;;;;;;;16.63;14.35;;;19.00;81.20;;;;;;5092777;28;20464;-84
2021/08/05 07:25:45;;;;;;;12.73;11.23;;;19.00;80.90;;;;;;5096357;28;20027;-85
2021/08/05 07:28:10;;;;;;;12.52;9.77;;;19.00;80.70;;;;;;5112979;28;20035;-85
2021/08/05 07:30:37;;;;;;;10.95;9.45;;;19.00;80.50;;;;;;5099308;28;20415;-85
2021/08/05 07:33:03;;;;;;;10.70;8.82;;;19.10;80.40;;;;;;5095694;28;20043;-85
2021/08/05 07:35:29;;;;;;;9.57;7.90;;;19.10;80.40;;;;;;5095098;28;20032;-84
2021/08/05 07:37:54;;;;;;;15.07;12.93;;;19.10;80.20;;;;;;5095209;28;20024;-85
2021/08/05 07:40:20;;;;;;;16.13;11.13;;;19.20;80.30;;;;;;5095208;28;20086;-84
2021/08/05 07:42:46;;;;;;;8.20;6.28;;;19.20;80.30;;;;;;5103438;28;20126;-85
2021/08/05 07:45:12;;;;;;;7.93;6.45;;;19.30;79.40;;;;;;5113173;28;20028;-84
2021/08/05 07:47:37;;;;;;;8.50;6.78;;;19.30;78.80;;;;;;5096999;28;20039;-84
2021/08/05 07:50:05;;;;;;;8.07;6.00;;;19.40;79.00;;;;;;5094888;28;20028;-84
2021/08/05 07:52:30;;;;;;;12.35;9.63;;;19.40;78.20;;;;;;5094658;28;20464;-84
2021/08/05 07:54:56;;;;;;;8.75;6.53;;;19.50;78.50;;;;;;5097779;28;20105;-84
2021/08/05 07:57:21;;;;;;;7.82;6.45;;;19.60;78.20;;;;;;5095847;28;20123;-84
2021/08/05 07:59:47;;;;;;;6.60;4.45;;;19.70;77.90;;;;;;5096517;28;20478;-85
2021/08/05 08:02:13;;;;;;;16.33;8.63;;;19.80;76.80;;;;;;5095460;28;20076;-84
2021/08/05 08:04:39;;;;;;;18.98;12.52;;;19.90;76.60;;;;;;5096333;28;20028;-84
2021/08/05 08:07:04;;;;;;;18.45;14.07;;;20.00;76.80;;;;;;5096180;28;20492;-85
2021/08/05 08:09:30;;;;;;;23.77;17.50;;;20.10;76.80;;;;;;5097131;28;20024;-84
2021/08/05 08:11:56;;;;;;;18.35;14.25;;;20.20;76.60;;;;;;5097135;28;20039;-83
2021/08/05 08:14:22;;;;;;;15.35;11.32;;;20.20;76.40;;;;;;5092828;28;20024;-85
2021/08/05 08:16:48;;;;;;;19.50;15.00;;;20.20;76.30;;;;;;5077394;28;20499;-85
2021/08/05 08:19:13;;;;;;;12.38;8.57;;;20.30;76.10;;;;;;5095536;28;20026;-84
2021/08/05 08:21:39;;;;;;;10.65;8.95;;;20.40;75.90;;;;;;5095111;28;20111;-85
2021/08/05 08:24:05;;;;;;;15.95;12.32;;;20.50;75.40;;;;;;5097204;28;20027;-85
2021/08/05 08:26:31;;;;;;;20.33;15.98;;;20.60;75.50;;;;;;5094681;28;20111;-84
2021/08/05 08:28:56;;;;;;;24.10;18.23;;;20.70;75.10;;;;;;5095013;28;20016;-85
2021/08/05 08:31:22;;;;;;;21.45;18.77;;;20.80;75.00;;;;;;5094520;28;20043;-85
2021/08/05 08:33:47;;;;;;;19.95;16.27;;;20.90;74.50;;;;;;5094848;28;20545;-85
2021/08/05 08:36:14;;;;;;;20.20;17.48;;;20.90;74.50;;;;;;5096643;28;20311;-84
2021/08/05 08:38:42;;;;;;;18.70;14.52;;;21.10;74.60;;;;;;5095538;28;20376;-84
2021/08/05 08:41:08;;;;;;;22.27;19.77;;;21.20;73.90;;;;;;5101050;28;20043;-84
2021/08/05 08:43:34;;;;;;;14.07;11.00;;;21.20;73.10;;;;;;5114038;28;20048;-83
2021/08/05 08:46:00;;;;;;;15.63;13.70;;;21.30;72.90;;;;;;5109574;28;20035;-83
2021/08/05 08:48:28;;;;;;;18.60;15.77;;;21.50;72.80;;;;;;5101085;28;20168;-84
2021/08/05 08:50:58;;;;;;;12.52;9.40;;;21.70;72.50;;;;;;5098354;28;20020;-84
2021/08/05 08:53:29;;;;;;;14.60;11.85;;;22.10;71.70;;;;;;5095516;28;20024;-84
2021/08/05 08:55:55;;;;;;;7.18;4.50;;;22.40;71.00;;;;;;5094610;28;20024;-83
2021/08/05 08:58:22;;;;;;;10.15;8.40;;;22.80;67.60;;;;;;5094313;28;20031;-83
2021/08/05 09:00:48;;;;;;;14.48;10.63;;;23.20;66.90;;;;;;5094922;28;20081;-84
2021/08/05 09:03:14;;;;;;;16.95;13.15;;;23.60;66.90;;;;;;5095822;28;20368;-85
2021/08/05 09:05:40;;;;;;;14.68;10.77;;;23.80;66.70;;;;;;5097298;28;20047;-85
2021/08/05 09:08:06;;;;;;;13.77;10.02;;;24.00;65.90;;;;;;5100451;28;20518;-85
2021/08/05 09:10:32;;;;;;;17.75;15.85;;;24.20;64.90;;;;;;5102842;28;20036;-86
2021/08/05 09:12:59;;;;;;;12.02;9.35;;;24.20;63.90;;;;;;5105056;28;20024;-85
2021/08/05 09:15:45;;;;;;;14.73;11.98;;;24.30;63.90;;;;;;5097956;28;20031;-84
2021/08/05 09:18:31;;;;;;;7.80;5.63;;;24.30;62.60;;;;;;5095304;28;20042;-85
2021/08/05 09:21:21;;;;;;;12.80;11.20;;;24.30;63.30;;;;;;5110007;28;20031;-84
2021/08/05 09:24:09;;;;;;;15.18;11.30;;;24.50;62.30;;;;;;5096454;28;20425;-84
2021/08/05 09:26:46;;;;;;;10.23;7.68;;;24.70;61.50;;;;;;5096522;28;20032;-83
2021/08/05 09:29:19;;;;;;;13.25;10.30;;;24.80;61.20;;;;;;5114006;28;20258;-84
2021/08/05 09:31:51;;;;;;;7.82;6.38;;;24.90;61.30;;;;;;5104706;28;20077;-85
2021/08/05 09:34:19;;;;;;;9.50;8.48;;;24.90;61.80;;;;;;5097085;28;20028;-85
2021/08/05 09:36:50;;;;;;;10.38;7.82;;;25.10;62.10;;;;;;5075392;28;20433;-85
2021/08/05 09:39:24;;;;;;;8.18;7.03;;;25.30;60.70;;;;;;5081749;28;20392;-86
2021/08/05 09:42:03;;;;;;;10.02;8.88;;;25.30;60.50;;;;;;5073433;28;20457;-86
2021/08/05 09:44:38;;;;;;;11.25;9.20;;;25.20;59.50;;;;;;5073635;28;20056;-86
2021/08/05 09:47:15;;;;;;;15.18;13.55;;;25.30;60.00;;;;;;5085408;28;20028;-85
2021/08/05 09:49:53;;;;;;;14.30;12.80;;;25.30;59.30;;;;;;5094032;28;20035;-85
2021/08/05 09:52:29;;;;;;;6.03;4.25;;;25.50;59.00;;;;;;5093376;28;20031;-85
2021/08/05 09:54:55;;;;;;;11.10;9.48;;;25.80;60.60;;;;;;5094246;28;20067;-84
2021/08/05 09:57:30;;;;;;;14.57;12.43;;;25.90;60.20;;;;;;5094377;28;20028;-86
2021/08/05 10:00:09;;;;;;;13.25;11.85;;;26.10;59.60;;;;;;5094537;28;20028;-85
2021/08/05 10:02:53;;;;;;;11.77;10.15;;;26.20;58.30;;;;;;5094738;28;20031;-85
2021/08/05 10:05:24;;;;;;;11.00;9.35;;;26.40;56.90;;;;;;5093432;28;20057;-85
2021/08/05 10:07:52;;;;;;;16.67;13.85;;;26.50;56.30;;;;;;5095653;28;20024;-87
2021/08/05 10:10:19;;;;;;;12.30;8.20;;;26.80;55.40;;;;;;5094709;28;20024;-85
2021/08/05 10:12:53;;;;;;;10.98;8.10;;;26.90;55.30;;;;;;5093450;28;20456;-86
2021/08/05 10:15:19;;;;;;;6.57;3.38;;;27.00;56.20;;;;;;5094760;28;20035;-86
2021/08/05 10:17:45;;;;;;;17.15;15.50;;;26.90;59.30;;;;;;5092781;28;20013;-85
2021/08/05 10:20:12;;;;;;;10.02;8.55;;;27.00;56.80;;;;;;5093660;28;20027;-85
2021/08/05 10:22:39;;;;;;;18.45;16.52;;;27.10;55.60;;;;;;5083167;22;20057;-87
2021/08/05 10:25:08;;;;;;;6.45;5.20;;;27.20;53.30;;;;;;5036063;28;20033;-86
2021/08/05 10:27:35;;;;;;;8.13;6.43;;;27.10;56.80;;;;;;5039344;28;20024;-88
2021/08/05 10:30:03;;;;;;;9.73;7.50;;;26.90;60.30;;;;;;5044730;28;20017;-85
2021/08/05 10:32:29;;;;;;;8.52;6.88;;;26.80;59.20;;;;;;5052549;28;20028;-86
2021/08/05 10:34:55;;;;;;;9.00;7.45;;;26.70;61.20;;;;;;5040211;28;20010;-87
2021/08/05 10:37:21;;;;;;;9.73;6.50;;;26.60;60.50;;;;;;5025751;28;20037;-87
2021/08/05 10:39:47;;;;;;;7.95;6.20;;;26.50;61.30;;;;;;5017643;28;20029;-88
2021/08/05 10:42:18;;;;;;;8.05;6.80;;;26.60;59.80;;;;;;5037424;28;20034;-88
2021/08/05 10:44:49;;;;;;;9.48;8.15;;;26.80;60.70;;;;;;5029433;28;20017;-86
2021/08/05 10:47:25;;;;;;;8.18;5.72;;;26.90;61.90;;;;;;5039611;28;20033;-88
2021/08/05 10:49:54;;;;;;;8.68;7.07;;;27.00;61.90;;;;;;5038122;28;20017;-88
2021/08/05 10:52:37;;;;;;;12.30;11.00;;;27.20;59.80;;;;;;5037155;28;20674;-87
2021/08/05 10:55:06;;;;;;;12.40;10.18;;;27.30;57.60;;;;;;5040158;28;20061;-88
2021/08/05 10:57:31;;;;;;;15.57;13.48;;;27.50;57.90;;;;;;5051608;28;20029;-87
2021/08/05 11:00:02;;;;;;;8.98;6.22;;;27.40;57.00;;;;;;5037742;28;20104;-87
2021/08/05 11:02:49;;;;;;;13.30;11.02;;;27.00;58.90;;;;;;5037934;28;20017;-87
2021/08/05 11:05:24;;;;;;;9.30;7.75;;;26.80;58.20;;;;;;5039970;28;20021;-87
2021/08/05 11:08:08;;;;;;;7.80;6.13;;;26.60;60.00;;;;;;5041082;28;20051;-86
2021/08/05 11:10:36;;;;;;;9.75;7.93;;;26.60;60.20;;;;;;5042057;28;20033;-89
2021/08/05 11:13:08;;;;;;;14.13;12.15;;;26.60;59.50;;;;;;5042863;28;20025;-88
2021/08/05 11:15:34;;;;;;;12.63;9.05;;;26.80;61.70;;;;;;5041269;28;20428;-88
2021/08/05 11:18:18;;;;;;;8.98;6.95;;;26.80;56.50;;;;;;5041475;28;20129;-88
2021/08/05 11:20:46;;;;;;;7.68;6.28;;;26.90;59.00;;;;;;5041854;28;20120;-89
2021/08/05 11:23:37;;;;;;;10.23;8.00;;;27.20;57.70;;;;;;5042783;28;20037;-88
2021/08/05 11:26:10;;;;;;;10.50;8.35;;;27.60;54.40;;;;;;5042894;28;20025;-89
2021/08/05 11:28:46;;;;;;;5.80;4.45;;;27.60;56.80;;;;;;5044019;28;20024;-90
2021/08/05 11:31:29;;;;;;;11.07;9.38;;;27.60;60.90;;;;;;5037281;28;20025;-90
2021/08/05 11:34:08;;;;;;;8.73;7.40;;;27.50;54.20;;;;;;5062002;28;20044;-88
2021/08/05 11:36:37;;;;;;;5.20;3.92;;;27.60;55.50;;;;;;5055453;28;20036;-90
2021/08/05 11:39:08;;;;;;;14.00;12.50;;;27.90;59.00;;;;;;5047178;28;20092;-88
2021/08/05 11:41:49;;;;;;;11.07;8.95;;;27.80;56.50;;;;;;5042188;28;20021;-88
2021/08/05 11:44:35;;;;;;;5.82;4.53;;;28.10;55.60;;;;;;5041436;28;20513;-90
2021/08/05 11:47:01;;;;;;;6.18;4.93;;;28.20;58.80;;;;;;5043802;28;20037;-90
2021/08/05 11:49:34;;;;;;;6.57;5.85;;;28.20;59.70;;;;;;5047373;28;20428;-90
2021/08/05 11:52:14;;;;;;;5.78;4.28;;;27.90;60.90;;;;;;5048959;28;20033;-90
2021/08/05 11:54:56;;;;;;;9.57;8.57;;;27.80;61.70;;;;;;5049943;28;20060;-90
2021/08/05 11:57:23;;;;;;;10.88;7.00;;;27.60;60.10;;;;;;5044871;28;20416;-89
2021/08/05 11:59:51;;;;;;;8.98;7.88;;;27.40;57.70;;;;;;5041912;28;20484;-91
2021/08/05 12:02:26;;;;;;;4.28;2.97;;;27.30;58.80;;;;;;5044449;28;20037;-91
2021/08/05 12:04:59;;;;;;;7.80;6.30;;;27.20;64.90;;;;;;5045721;28;20037;-91
2021/08/05 12:07:32;;;;;;;9.35;6.10;;;27.20;64.20;;;;;;5047373;28;20100;-91
2021/08/05 12:10:13;;;;;;;6.10;4.25;;;27.30;63.10;;;;;;5048913;28;20067;-89
2021/08/05 12:12:49;;;;;;;11.10;10.00;;;27.50;62.30;;;;;;5045606;28;20041;-90
2021/08/05 12:15:24;;;;;;;10.68;9.30;;;27.60;60.90;;;;;;5044687;28;20055;-90
2021/08/05 12:17:52;;;;;;;6.47;4.45;;;27.50;63.00;;;;;;5044075;28;20057;-91
2021/08/05 12:20:36;;;;;;;11.73;9.65;;;27.60;62.60;;;;;;5048092;28;20025;-87
2021/08/05 12:23:19;;;;;;;12.50;11.25;;;27.50;60.00;;;;;;5057586;28;20021;-91
2021/08/05 12:26:01;;;;;;;6.57;4.43;;;27.10;55.90;;;;;;5055193;28;20005;-91
2021/08/05 12:28:31;;;;;;;12.73;11.43;;;26.70;59.80;;;;;;5044838;28;20055;-90
2021/08/05 12:31:03;;;;;;;10.70;9.65;;;26.30;64.60;;;;;;5054287;28;20021;-89
2021/08/05 12:33:42;;;;;;;8.85;7.95;;;25.90;65.80;;;;;;5051358;28;20119;-91
2021/08/05 12:36:18;;;;;;;8.75;7.80;;;25.80;68.10;;;;;;5045161;28;20044;-90
2021/08/05 12:38:50;;;;;;;8.90;8.00;;;25.50;67.60;;;;;;5050189;28;20025;-91
2021/08/05 12:41:33;;;;;;;12.13;10.48;;;25.40;66.90;;;;;;5047281;28;20028;-91
2021/08/05 12:44:07;;;;;;;11.63;10.43;;;25.30;67.10;;;;;;5047605;28;20115;-91
2021/08/05 12:46:35;;;;;;;14.00;12.63;;;25.00;66.70;;;;;;5043391;28;20059;-91